Time;durP1;ratioP1;P1;durP2;ratioP2;P2;SDS_P1;SDS_P2;PMS_P1;PMS_P2;Temp;Humidity;BMP_temperature;BMP_pressure;BME280_temperature;BME280_humidity;BME280_pressure;Samples;Min_cycle;Max_cycle;Signal;HPM_P1;HPM_P2
2022/09/01 00:00:17;;;;;;;20.15;14.93;;;;;;;34.83;25.80;100711.09;5048689;28;20049;-84
2022/09/01 00:02:46;;;;;;;24.58;16.20;;;;;;;34.90;25.60;100702.59;5049145;28;20423;-82
2022/09/01 00:05:16;;;;;;;25.75;18.08;;;;;;;34.90;24.86;100710.66;5048507;28;20041;-83
2022/09/01 00:07:45;;;;;;;34.42;20.40;;;;;;;34.90;24.33;100713.34;5048139;28;20490;-85
2022/09/01 00:10:14;;;;;;;30.00;18.70;;;;;;;34.81;24.17;100713.03;5049548;28;20048;-83
2022/09/01 00:12:44;;;;;;;25.50;18.92;;;;;;;34.79;24.52;100706.91;5046834;28;20111;-84
2022/09/01 00:15:13;;;;;;;23.95;17.90;;;;;;;34.82;24.54;100709.38;5046145;28;20063;-84
2022/09/01 00:17:42;;;;;;;23.85;17.70;;;;;;;34.85;24.74;100702.06;5047819;28;20494;-83
2022/09/01 00:20:11;;;;;;;23.70;17.40;;;;;;;34.85;25.05;100705.63;5049864;28;20206;-81
2022/09/01 00:22:41;;;;;;;26.63;19.23;;;;;;;34.86;25.01;100701.09;5046085;28;20135;-82
2022/09/01 00:25:10;;;;;;;23.33;18.80;;;;;;;34.81;24.71;100696.91;5046804;28;20048;-82
2022/09/01 00:27:39;;;;;;;23.20;18.45;;;;;;;34.79;24.67;100701.53;5051845;28;20041;-83
2022/09/01 00:30:09;;;;;;;28.02;18.42;;;;;;;34.81;24.96;100694.22;5045703;28;20044;-84
2022/09/01 00:32:37;;;;;;;23.35;17.13;;;;;;;34.82;25.14;100693.25;5051326;28;20052;-83
2022/09/01 00:35:07;;;;;;;22.67;17.05;;;;;;;34.83;25.49;100692.28;5050252;28;20048;-84
2022/09/01 00:37:36;;;;;;;19.83;15.18;;;;;;;34.83;25.35;100694.97;5049393;28;20501;-83
2022/09/01 00:40:08;;;;;;;25.23;16.13;;;;;;;34.82;25.83;100695.09;5045835;28;20052;-82
2022/09/01 00:42:36;;;;;;;22.83;16.35;;;;;;;34.77;25.98;100690.06;5044952;28;20047;-77
2022/09/01 00:45:06;;;;;;;21.80;15.82;;;;;;;34.72;25.37;100691.34;5050255;28;20056;-82
2022/09/01 00:47:39;;;;;;;21.55;15.30;;;;;;;34.62;25.55;100689.34;5047678;28;20080;-83
2022/09/01 00:50:11;;;;;;;20.80;15.93;;;;;;;34.60;25.69;100696.63;5045458;28;20090;-82
2022/09/01 00:52:44;;;;;;;23.40;16.50;;;;;;;34.57;25.40;100694.16;5048734;28;20041;-78
2022/09/01 00:55:18;;;;;;;23.40;16.35;;;;;;;34.52;26.27;100692.75;5050377;28;20056;-81
2022/09/01 00:57:47;;;;;;;21.17;13.30;;;;;;;34.46;25.73;100693.22;5049580;28;20056;-82
2022/09/01 01:00:19;;;;;;;19.02;11.95;;;;;;;34.39;25.70;100690.97;5046540;28;20057;-79
2022/09/01 01:02:52;;;;;;;17.50;11.35;;;;;;;34.32;25.62;100689.69;5042940;28;20149;-80
2022/09/01 01:05:22;;;;;;;15.32;10.25;;;;;;;34.29;25.47;100699.78;5046092;28;20140;-84
2022/09/01 01:07:51;;;;;;;14.70;9.00;;;;;;;34.23;25.68;100698.41;5046879;28;20063;-81
2022/09/01 01:10:23;;;;;;;11.32;8.10;;;;;;;34.20;26.15;100690.53;5046203;28;20044;-81
2022/09/01 01:12:52;;;;;;;11.38;7.90;;;;;;;34.15;26.78;100698.94;5046985;28;20044;-79
2022/09/01 01:15:21;;;;;;;11.30;7.35;;;;;;;34.08;27.20;100691.38;5046171;28;20056;-85
2022/09/01 01:17:50;;;;;;;15.80;7.25;;;;;;;33.99;27.77;100687.53;5045358;28;20051;-83
2022/09/01 01:23:18;;;;;;;12.80;7.60;;;;;;;33.85;28.49;100690.31;5040996;28;20057;-81
2022/09/01 01:25:50;;;;;;;16.88;8.02;;;;;;;33.77;28.72;100696.22;5045513;28;20069;-78
2022/09/01 01:28:25;;;;;;;11.88;7.32;;;;;;;33.72;29.36;100695.66;5044622;28;20484;-80
2022/09/01 01:30:56;;;;;;;14.75;8.10;;;;;;;33.65;28.64;100691.69;5045383;28;20041;-81
2022/09/01 01:33:27;;;;;;;11.73;7.72;;;;;;;33.57;29.33;100698.44;5044686;28;20502;-79
2022/09/01 01:35:56;;;;;;;13.63;8.20;;;;;;;33.49;29.65;100698.06;5044965;28;20122;-81
2022/09/01 01:38:26;;;;;;;15.20;8.30;;;;;;;33.42;30.19;100698.56;5050687;28;20072;-81
2022/09/01 01:40:56;;;;;;;15.82;7.63;;;;;;;33.32;30.63;100701.03;5047941;28;20052;-81
2022/09/01 01:43:26;;;;;;;14.48;8.15;;;;;;;33.21;30.41;100696.38;5043164;28;20037;-80
2022/09/01 01:45:57;;;;;;;16.60;8.45;;;;;;;33.08;30.29;100701.69;5048188;28;20130;-81
2022/09/01 01:48:27;;;;;;;13.63;8.20;;;;;;;32.96;30.28;100711.38;5039718;28;20044;-81
2022/09/01 01:50:59;;;;;;;11.23;7.88;;;;;;;32.85;30.95;100704.97;5043035;28;20052;-79
2022/09/01 01:53:28;;;;;;;15.43;9.13;;;;;;;32.70;31.04;100701.47;5041905;28;20051;-84
2022/09/01 01:55:59;;;;;;;13.48;8.88;;;;;;;32.59;31.24;100715.53;5049468;28;20061;-81
2022/09/01 01:58:29;;;;;;;14.45;9.13;;;;;;;32.49;31.29;100703.66;5046157;28;20053;-81
2022/09/01 02:00:58;;;;;;;14.45;9.20;;;;;;;32.38;31.60;100708.84;5026383;28;20057;-81
2022/09/01 02:03:35;;;;;;;16.27;9.45;;;;;;;32.28;31.65;100712.09;5027801;28;20041;-82
2022/09/01 02:06:05;;;;;;;17.98;8.80;;;;;;;32.19;31.88;100706.44;5027347;28;20053;-83
2022/09/01 02:08:35;;;;;;;18.05;9.48;;;;;;;32.11;31.81;100706.91;5024667;28;20049;-82
2022/09/01 02:11:06;;;;;;;13.65;9.07;;;;;;;31.95;32.12;100698.91;5024721;28;20658;-80
2022/09/01 02:13:35;;;;;;;12.77;8.70;;;;;;;31.88;32.41;100698.44;5028559;28;20053;-83
2022/09/01 02:16:11;;;;;;;14.85;9.25;;;;;;;31.77;33.01;100702.72;5027607;28;20116;-81
2022/09/01 02:18:43;;;;;;;15.68;8.57;;;;;;;31.61;32.63;100700.97;5024648;28;20069;-80
2022/09/01 02:21:17;;;;;;;13.13;8.27;;;;;;;31.42;33.53;100700.31;5026538;28;20154;-84
2022/09/01 02:23:48;;;;;;;14.82;8.32;;;;;;;31.26;33.22;100711.03;5025824;28;20103;-81
2022/09/01 02:26:21;;;;;;;15.70;8.15;;;;;;;31.17;34.39;100708.88;5026596;28;20137;-79
2022/09/01 02:28:50;;;;;;;12.50;8.07;;;;;;;31.03;35.62;100715.88;5024251;28;20185;-79
2022/09/01 02:31:19;;;;;;;14.43;6.63;;;;;;;30.88;35.08;100714.09;5030193;28;20490;-81
2022/09/01 02:33:48;;;;;;;18.40;6.97;;;;;;;30.66;35.01;100717.88;5030145;28;20085;-80
2022/09/01 02:36:19;;;;;;;11.55;6.75;;;;;;;30.39;35.82;100716.72;5031105;28;20111;-80
2022/09/01 02:38:49;;;;;;;12.63;6.75;;;;;;;30.10;36.73;100707.56;5031113;28;20057;-79
2022/09/01 02:41:22;;;;;;;14.38;6.28;;;;;;;29.82;36.77;100717.88;5022152;28;20518;-81
2022/09/01 02:43:51;;;;;;;14.40;6.20;;;;;;;29.61;37.28;100713.63;5024915;28;20141;-81
2022/09/01 02:46:22;;;;;;;11.68;6.18;;;;;;;29.49;37.28;100722.25;5025943;28;20049;-78
2022/09/01 02:48:51;;;;;;;9.63;5.43;;;;;;;29.36;38.05;100711.31;5029025;28;20545;-79
2022/09/01 02:51:24;;;;;;;9.82;5.05;;;;;;;29.23;38.06;100721.72;5028929;28;20490;-79
2022/09/01 02:53:55;;;;;;;10.80;5.38;;;;;;;29.02;38.42;100728.91;5024912;28;20059;-81
2022/09/01 02:56:26;;;;;;;13.57;5.72;;;;;;;28.78;38.49;100733.59;5028153;28;20487;-82
2022/09/01 02:58:56;;;;;;;13.53;5.40;;;;;;;28.64;39.01;100733.41;5033693;28;20044;-80
2022/09/01 03:01:27;;;;;;;13.38;5.65;;;;;;;28.45;39.57;100738.63;5048761;28;20048;-83
2022/09/01 03:03:56;;;;;;;;;;;;;;;28.29;40.05;100738.47;5047612;28;20051;-76
2022/09/01 03:06:26;;;;;;;11.65;5.65;;;;;;;28.13;40.54;100725.88;5050221;28;19954;-79
2022/09/01 03:08:58;;;;;;;10.65;5.28;;;;;;;28.10;40.57;100743.75;5048935;28;20080;-79
2022/09/01 03:11:30;;;;;;;10.63;5.30;;;;;;;28.01;40.41;100744.16;5047277;28;20041;-78
2022/09/01 03:13:59;;;;;;;6.93;4.97;;;;;;;27.87;41.42;100747.41;5046519;28;20631;-76
2022/09/01 03:16:29;;;;;;;8.85;5.22;;;;;;;27.73;41.67;100746.16;5044798;28;20127;-80
2022/09/01 03:18:58;;;;;;;10.18;5.38;;;;;;;27.61;41.54;100744.00;5045668;28;20135;-78
2022/09/01 03:21:26;;;;;;;9.75;4.95;;;;;;;27.52;41.41;100747.91;5047159;28;20049;-79
2022/09/01 03:23:56;;;;;;;8.15;5.20;;;;;;;27.43;41.33;100747.44;5046523;28;20041;-77
2022/09/01 03:26:27;;;;;;;13.98;5.65;;;;;;;27.31;42.11;100760.28;5045238;28;20510;-77
2022/09/01 03:28:56;;;;;;;8.32;5.05;;;;;;;27.22;42.33;100755.34;5046418;28;21362;-77
2022/09/01 03:31:27;;;;;;;8.90;5.32;;;;;;;27.12;42.48;100753.94;5046642;28;20045;-77
2022/09/01 03:33:56;;;;;;;14.80;5.55;;;;;;;27.03;42.63;100752.53;5047064;28;20453;-79
2022/09/01 03:36:26;;;;;;;10.63;5.15;;;;;;;26.93;42.81;100759.94;5045759;28;20044;-78
2022/09/01 03:38:55;;;;;;;9.02;4.93;;;;;;;26.85;42.88;100758.53;5047072;28;20514;-77
2022/09/01 03:41:30;;;;;;;10.45;5.57;;;;;;;26.75;43.49;100765.97;5047163;28;20103;-77
2022/09/01 03:43:59;;;;;;;7.20;5.35;;;;;;;26.67;43.11;100773.38;5050451;28;20136;-81
2022/09/01 03:46:30;;;;;;;9.27;5.07;;;;;;;26.57;43.88;100783.44;5050612;28;20048;-78
2022/09/01 03:49:11;;;;;;;9.40;5.67;;;;;;;26.44;43.24;100775.03;5046433;28;20045;-80
2022/09/01 03:51:41;;;;;;;12.57;5.53;;;;;;;26.33;43.37;100777.22;5047020;28;20048;-77
2022/09/01 03:54:10;;;;;;;10.98;5.70;;;;;;;26.25;43.28;100785.44;5047629;28;20127;-82
2022/09/01 03:56:40;;;;;;;9.75;5.50;;;;;;;26.13;43.42;100783.19;5048613;28;20048;-78
2022/09/01 03:59:15;;;;;;;7.38;4.95;;;;;;;26.04;45.01;100792.34;5047846;28;20156;-78
2022/09/01 04:01:44;;;;;;;8.05;4.90;;;;;;;25.95;45.75;100799.75;5046147;28;20045;-78
2022/09/01 04:04:14;;;;;;;8.57;5.03;;;;;;;25.86;46.06;100795.56;5046436;28;20052;-78
2022/09/01 04:06:43;;;;;;;8.27;5.13;;;;;;;25.75;44.59;100795.94;5044976;28;20518;-78
2022/09/01 04:09:12;;;;;;;12.43;5.70;;;;;;;25.61;46.29;100799.06;5047517;28;20529;-78
2022/09/01 04:11:45;;;;;;;9.88;5.03;;;;;;;25.49;45.48;100810.03;5046482;28;20052;-79
2022/09/01 04:14:13;;;;;;;8.75;4.38;;;;;;;25.39;46.64;100812.09;5046286;28;20063;-77
2022/09/01 04:19:29;;;;;;;6.72;5.20;;;;;;;25.23;47.86;100824.09;5047777;28;20088;-79
2022/09/01 04:22:00;;;;;;;9.15;5.68;;;;;;;25.14;47.28;100824.34;5049475;28;20064;-76
2022/09/01 04:24:30;;;;;;;8.68;5.47;;;;;;;24.90;46.39;100818.84;5048975;28;20162;-78
2022/09/01 04:27:03;;;;;;;8.68;4.72;;;;;;;24.77;47.28;100817.47;5049796;28;20106;-78
2022/09/01 04:29:32;;;;;;;8.27;4.72;;;;;;;24.67;47.61;100827.44;5049473;28;20049;-78
2022/09/01 04:32:04;;;;;;;9.02;4.78;;;;;;;24.61;48.24;100823.19;5047363;28;20049;-80
2022/09/01 04:34:36;;;;;;;6.80;4.60;;;;;;;24.58;48.25;100822.38;5049322;28;20049;-77
2022/09/01 04:37:08;;;;;;;9.57;5.13;;;;;;;24.53;48.06;100829.59;5045242;28;20045;-77
2022/09/01 04:39:37;;;;;;;7.88;5.20;;;;;;;24.46;47.69;100832.38;5043762;28;20041;-79
2022/09/01 04:42:09;;;;;;;7.88;5.03;;;;;;;24.42;47.14;100827.22;5044444;28;20045;-76
2022/09/01 04:44:39;;;;;;;7.87;5.23;;;;;;;24.34;47.56;100829.19;5046483;28;20045;-76
2022/09/01 04:47:11;;;;;;;8.70;4.53;;;;;;;24.23;47.68;100835.63;5048260;28;20049;-76
2022/09/01 04:49:39;;;;;;;8.20;4.95;;;;;;;24.15;47.39;100836.72;5047787;28;20041;-76
2022/09/01 04:52:08;;;;;;;6.97;5.13;;;;;;;24.07;47.71;100830.75;5048196;28;20726;-76
2022/09/01 04:54:39;;;;;;;8.98;4.97;;;;;;;24.00;48.11;100835.31;5046604;28;20595;-74
2022/09/01 04:57:09;;;;;;;9.23;4.95;;;;;;;23.84;47.75;100842.75;5047352;28;20064;-77
2022/09/01 04:59:38;;;;;;;7.15;4.45;;;;;;;23.65;48.71;100842.31;5047659;28;20403;-77
2022/09/01 05:02:08;;;;;;;7.25;4.93;;;;;;;23.49;48.82;100843.56;5048861;28;20485;-77
2022/09/01 05:04:39;;;;;;;6.95;4.68;;;;;;;23.41;49.52;100846.38;5049192;28;20091;-75
2022/09/01 05:07:09;;;;;;;7.50;4.65;;;;;;;23.37;49.62;100844.72;5048912;28;20045;-76
2022/09/01 05:09:38;;;;;;;8.45;4.72;;;;;;;23.32;49.54;100841.28;5048712;28;20095;-76
2022/09/01 05:12:12;;;;;;;8.25;5.10;;;;;;;23.29;50.07;100836.94;5048115;28;20048;-76
2022/09/01 05:14:42;;;;;;;7.38;4.50;;;;;;;23.22;50.15;100845.91;5047143;28;20064;-75
2022/09/01 05:17:12;;;;;;;8.50;5.38;;;;;;;23.08;50.24;100848.81;5048164;28;20132;-75
2022/09/01 05:19:42;;;;;;;7.35;4.50;;;;;;;22.97;50.81;100845.50;5043827;28;20048;-76
2022/09/01 05:22:12;;;;;;;7.78;4.47;;;;;;;22.87;50.97;100855.38;5042414;28;20065;-76
2022/09/01 05:24:40;;;;;;;7.07;4.80;;;;;;;22.76;51.34;100852.94;5044323;28;20136;-76
2022/09/01 05:27:11;;;;;;;7.47;4.65;;;;;;;22.64;51.61;100857.59;5046411;28;20060;-77
2022/09/01 05:29:40;;;;;;;7.88;4.75;;;;;;;22.49;51.57;100859.59;5045677;28;20643;-75
2022/09/01 05:32:09;;;;;;;8.27;4.50;;;;;;;22.38;51.52;100862.44;5046732;28;20037;-76
2022/09/01 05:34:38;;;;;;;7.43;5.00;;;;;;;22.30;51.54;100869.59;5047388;28;20044;-76
2022/09/01 05:37:11;;;;;;;8.63;4.85;;;;;;;22.23;51.63;100860.06;5043611;28;20056;-75
2022/09/01 05:39:40;;;;;;;9.25;4.38;;;;;;;22.18;52.24;100864.53;5047930;28;20072;-75
2022/09/01 05:42:16;;;;;;;7.57;4.75;;;;;;;22.11;51.92;100868.16;5045715;28;20053;-75
2022/09/01 05:44:46;;;;;;;10.25;4.50;;;;;;;22.00;52.08;100870.97;5047107;28;20540;-76
2022/09/01 05:47:15;;;;;;;13.90;4.70;;;;;;;21.94;52.32;100871.94;5045102;28;20063;-77
2022/09/01 05:49:43;;;;;;;7.72;4.68;;;;;;;21.89;52.94;100879.00;5046556;28;20049;-76
2022/09/01 05:52:12;;;;;;;7.50;4.55;;;;;;;21.82;53.66;100882.63;5048692;28;20060;-77
2022/09/01 05:54:41;;;;;;;8.23;5.10;;;;;;;21.70;53.73;100878.44;5046244;28;20045;-77
2022/09/01 05:57:09;;;;;;;9.88;4.90;;;;;;;21.61;54.17;100877.69;5045250;28;20136;-77
2022/09/01 05:59:40;;;;;;;9.52;4.47;;;;;;;21.52;54.42;100879.56;5048506;28;20061;-77
2022/09/01 06:02:11;;;;;;;9.70;4.53;;;;;;;21.40;54.27;100885.00;5048017;28;20063;-76
2022/09/01 06:04:42;;;;;;;10.52;4.60;;;;;;;21.29;54.51;100887.72;5043192;28;20064;-76
2022/09/01 06:07:13;;;;;;;13.43;5.18;;;;;;;21.16;54.95;100887.91;5053172;28;20044;-76
2022/09/01 06:09:44;;;;;;;8.25;5.47;;;;;;;21.06;55.08;100885.38;5051896;28;20041;-76
2022/09/01 06:12:19;;;;;;;8.98;4.93;;;;;;;21.02;55.64;100890.69;5052452;28;20045;-77
2022/09/01 06:14:50;;;;;;;6.45;4.57;;;;;;;20.99;55.92;100880.22;5054079;28;20057;-77
2022/09/01 06:17:23;;;;;;;9.40;4.80;;;;;;;20.95;56.04;100884.63;5051483;28;20106;-75
2022/09/01 06:19:54;;;;;;;8.23;4.82;;;;;;;20.89;55.81;100882.94;5056811;28;20059;-76
2022/09/01 06:22:24;;;;;;;9.48;4.95;;;;;;;20.82;55.92;100883.91;5050857;28;20037;-75
2022/09/01 06:24:53;;;;;;;12.68;4.65;;;;;;;20.74;55.76;100892.75;5047331;28;20052;-74
2022/09/01 06:27:22;;;;;;;6.45;4.50;;;;;;;20.62;56.16;100889.34;5051118;28;20048;-75
2022/09/01 06:29:55;;;;;;;6.63;4.35;;;;;;;20.49;56.28;100877.19;5055208;28;20056;-75
2022/09/01 06:32:24;;;;;;;6.13;4.30;;;;;;;20.47;56.69;100894.72;5057908;28;20041;-75
2022/09/01 06:34:56;;;;;;;7.57;4.30;;;;;;;20.43;56.76;100893.00;5055426;28;20540;-75
2022/09/01 06:37:24;;;;;;;;;;;;;;;20.38;57.52;100889.53;5053586;28;20077;-74
2022/09/01 06:39:53;;;;;;;6.53;4.43;;;;;;;20.29;57.61;100893.13;5051682;28;19924;-75
2022/09/01 06:42:22;;;;;;;7.60;4.75;;;;;;;20.19;57.55;100899.34;5051208;28;20049;-75
2022/09/01 06:44:52;;;;;;;10.10;4.53;;;;;;;20.08;58.36;100902.03;5051142;28;20048;-74
2022/09/01 06:47:21;;;;;;;8.95;4.57;;;;;;;19.95;58.95;100908.25;5050276;28;20049;-74
2022/09/01 06:49:52;;;;;;;9.88;5.40;;;;;;;19.86;59.17;100907.47;5051722;28;20053;-75
2022/09/01 06:52:22;;;;;;;7.15;4.35;;;;;;;19.82;59.23;100908.34;5049032;28;20692;-75
2022/09/01 06:54:52;;;;;;;9.45;4.65;;;;;;;19.79;59.47;100910.09;5043270;28;20203;-75
2022/09/01 06:57:21;;;;;;;6.63;4.80;;;;;;;19.77;59.31;100910.16;5051254;28;20064;-76
2022/09/01 06:59:52;;;;;;;10.25;4.97;;;;;;;19.76;59.72;100915.38;5053384;28;20164;-76
2022/09/01 07:02:21;;;;;;;11.13;5.00;;;;;;;19.73;59.83;100918.03;5053174;28;20049;-76
2022/09/01 07:04:50;;;;;;;6.72;4.50;;;;;;;19.70;60.27;100913.69;5053405;28;20490;-76
2022/09/01 07:07:19;;;;;;;8.73;4.65;;;;;;;19.66;60.10;100917.16;5054703;28;20137;-75
2022/09/01 07:09:48;;;;;;;7.20;4.85;;;;;;;19.63;59.89;100909.28;5054732;28;20048;-75
2022/09/01 07:12:19;;;;;;;6.63;4.50;;;;;;;19.59;60.34;100915.47;5054487;28;20056;-75
2022/09/01 07:14:48;;;;;;;6.80;4.63;;;;;;;19.57;60.11;100919.84;5052061;28;20809;-75
2022/09/01 07:17:20;;;;;;;7.30;4.57;;;;;;;19.53;60.60;100920.72;5046411;28;20096;-75
2022/09/01 07:19:49;;;;;;;9.45;5.05;;;;;;;19.51;60.12;100920.72;5050296;28;20169;-75
2022/09/01 07:22:17;;;;;;;6.80;4.43;;;;;;;19.49;60.86;100926.88;5048183;28;20066;-75
2022/09/01 07:24:46;;;;;;;7.43;4.68;;;;;;;19.46;60.80;100931.25;5049387;28;20494;-76
2022/09/01 07:27:15;;;;;;;6.60;4.57;;;;;;;19.41;61.06;100935.66;5055564;28;20037;-77
2022/09/01 07:29:43;;;;;;;8.52;4.90;;;;;;;19.34;60.84;100928.69;5051930;28;20081;-77
2022/09/01 07:32:12;;;;;;;6.70;4.05;;;;;;;19.32;61.64;100934.81;5049934;28;20111;-76
2022/09/01 07:34:45;;;;;;;8.85;4.72;;;;;;;19.26;62.34;100938.31;5049333;28;20098;-76
2022/09/01 07:37:14;;;;;;;7.53;4.95;;;;;;;19.22;62.44;100934.00;5051023;28;20060;-77
2022/09/01 07:39:43;;;;;;;7.13;4.75;;;;;;;19.16;62.22;100944.50;5046462;28;20061;-76
2022/09/01 07:42:17;;;;;;;9.38;5.05;;;;;;;19.12;62.65;100940.13;5045214;28;20156;-76
2022/09/01 07:44:46;;;;;;;7.00;4.60;;;;;;;19.07;62.75;100942.75;5047504;28;20118;-76
2022/09/01 07:47:16;;;;;;;7.15;4.63;;;;;;;19.02;63.05;100947.16;5047497;28;20064;-76
2022/09/01 07:49:46;;;;;;;7.05;4.20;;;;;;;18.96;62.70;100953.25;5049391;28;20063;-75
2022/09/01 07:52:15;;;;;;;8.85;4.35;;;;;;;18.91;63.15;100948.91;5046606;28;20562;-75
2022/09/01 07:54:44;;;;;;;6.63;3.97;;;;;;;18.86;64.20;100955.91;5048592;28;20103;-75
2022/09/01 07:57:13;;;;;;;6.97;4.50;;;;;;;18.79;64.01;100955.91;5044590;28;20122;-75
2022/09/01 07:59:42;;;;;;;5.00;3.75;;;;;;;18.74;63.98;100954.16;5049329;28;20068;-76
2022/09/01 08:02:11;;;;;;;6.53;4.38;;;;;;;18.71;63.94;100954.13;5050264;28;20045;-74
2022/09/01 08:04:40;;;;;;;8.35;4.57;;;;;;;18.69;64.34;100955.88;5047766;28;20071;-75
2022/09/01 08:07:11;;;;;;;6.60;4.20;;;;;;;18.66;64.96;100962.00;5048196;28;20533;-75
2022/09/01 08:09:39;;;;;;;7.40;3.83;;;;;;;18.60;65.08;100960.28;5051679;28;20059;-76
2022/09/01 08:12:09;;;;;;;6.63;4.45;;;;;;;18.58;65.10;100964.63;5049742;28;20048;-75
2022/09/01 08:14:37;;;;;;;7.97;4.63;;;;;;;18.54;65.37;100976.00;5051142;28;20049;-76
2022/09/01 08:17:06;;;;;;;8.15;4.20;;;;;;;18.51;65.83;100969.84;5044776;28;20059;-75
2022/09/01 08:19:34;;;;;;;6.75;4.57;;;;;;;18.44;65.86;100969.00;5051837;28;20041;-76
2022/09/01 08:22:03;;;;;;;7.53;4.10;;;;;;;18.39;66.52;100976.88;5051231;28;20548;-76
2022/09/01 08:24:33;;;;;;;9.20;4.15;;;;;;;18.33;66.27;100957.66;5048149;28;20099;-76
2022/09/01 08:27:03;;;;;;;6.45;4.28;;;;;;;18.34;66.66;100969.88;5046866;28;20056;-76
2022/09/01 08:29:35;;;;;;;7.75;4.32;;;;;;;18.32;66.54;100968.97;5045394;28;20048;-76
2022/09/01 08:32:03;;;;;;;8.95;4.45;;;;;;;18.27;67.05;100968.97;5050638;28;20041;-76
2022/09/01 08:34:36;;;;;;;6.75;4.13;;;;;;;18.23;66.63;100972.47;5047166;28;20045;-76
2022/09/01 08:37:04;;;;;;;;;;;;;;;18.20;66.97;100975.94;5048672;28;20039;-76
2022/09/01 08:39:34;;;;;;;7.60;4.55;;;;;;;18.15;67.54;100971.59;5046121;28;20455;-75
2022/09/01 08:42:13;;;;;;;10.40;4.70;;;;;;;18.10;67.85;100974.19;5049376;28;20114;-76
2022/09/01 08:44:48;;;;;;;5.90;4.35;;;;;;;18.06;67.74;100974.19;5045978;28;20495;-76
2022/09/01 08:47:19;;;;;;;9.25;4.43;;;;;;;18.02;68.47;100975.91;5047974;28;20056;-76
2022/09/01 08:49:50;;;;;;;8.50;4.35;;;;;;;17.97;68.64;100977.66;5046870;28;20064;-76
2022/09/01 08:52:27;;;;;;;7.40;4.45;;;;;;;17.91;68.57;100978.53;5048587;28;20047;-76
2022/09/01 08:55:04;;;;;;;7.93;3.90;;;;;;;17.87;68.75;100978.50;5046009;28;20130;-76
2022/09/01 08:57:35;;;;;;;8.90;4.78;;;;;;;17.82;69.00;100977.59;5046394;28;20056;-76
2022/09/01 09:00:06;;;;;;;10.63;4.65;;;;;;;17.70;68.92;100962.69;5047451;28;20514;-76
2022/09/01 09:02:49;;;;;;;8.55;3.97;;;;;;;17.74;68.44;100980.16;5048487;28;20041;-76
2022/09/01 09:05:31;;;;;;;7.38;4.10;;;;;;;17.69;69.09;100972.31;5046274;28;20072;-76
2022/09/01 09:08:34;;;;;;;6.80;3.97;;;;;;;17.67;69.34;100974.03;5043518;28;20124;-76
2022/09/01 09:11:07;;;;;;;5.85;4.47;;;;;;;17.64;69.88;100980.97;5047167;28;20041;-76
2022/09/01 09:13:47;;;;;;;6.50;4.47;;;;;;;17.60;70.00;100977.50;5049600;28;20048;-77
2022/09/01 09:16:19;;;;;;;6.95;3.55;;;;;;;17.57;69.94;100978.38;5054032;28;20072;-75
2022/09/01 09:18:50;;;;;;;;;;;;;;;17.54;70.28;100972.22;5049888;28;20525;-76
2022/09/01 09:21:23;;;;;;;8.23;4.35;;;;;;;17.51;70.65;100980.06;5045999;28;19921;-76
2022/09/01 09:23:59;;;;;;;6.18;3.70;;;;;;;17.47;70.29;100978.31;5047115;28;20651;-75
2022/09/01 09:26:31;;;;;;;5.60;3.05;;;;;;;17.44;70.69;100980.91;5048488;28;20075;-78
2022/09/01 09:29:00;;;;;;;7.65;4.10;;;;;;;17.41;70.46;100976.56;5050459;28;20053;-76
2022/09/01 09:31:34;;;;;;;6.90;4.03;;;;;;;17.38;70.58;100974.78;5045139;28;20040;-76
2022/09/01 09:34:02;;;;;;;5.95;3.58;;;;;;;17.23;70.42;100966.88;5043676;28;20054;-76
2022/09/01 09:36:35;;;;;;;5.78;3.88;;;;;;;17.31;71.13;100975.59;5039460;28;20037;-76
2022/09/01 09:39:10;;;;;;;6.68;4.03;;;;;;;17.27;71.16;100971.25;5047938;28;20061;-76
2022/09/01 09:41:41;;;;;;;7.65;4.45;;;;;;;17.26;71.52;100973.84;5044346;28;20107;-75
2022/09/01 09:44:22;;;;;;;5.75;3.83;;;;;;;17.22;71.25;100974.69;5045062;28;20083;-76
2022/09/01 09:46:51;;;;;;;6.15;3.72;;;;;;;17.17;70.89;100972.03;5044217;28;20059;-76
2022/09/01 09:49:23;;;;;;;6.18;4.00;;;;;;;17.11;71.01;100975.50;5049840;28;20771;-76
2022/09/01 09:51:53;;;;;;;5.47;3.83;;;;;;;17.05;71.52;100967.63;5046016;28;20256;-75
2022/09/01 09:54:25;;;;;;;8.23;4.40;;;;;;;17.04;71.43;100965.88;5046274;28;20057;-76
2022/09/01 09:57:12;;;;;;;7.03;3.40;;;;;;;17.02;71.72;100961.47;5047504;28;20052;-75
2022/09/01 09:59:49;;;;;;;5.50;3.28;;;;;;;16.96;71.18;100957.09;5047768;28;20106;-75
2022/09/01 10:02:31;;;;;;;8.43;4.80;;;;;;;16.93;72.10;100957.97;5029983;28;20495;-76
2022/09/01 10:05:01;;;;;;;6.38;3.78;;;;;;;16.89;72.70;100952.72;5028032;28;20079;-75
2022/09/01 10:07:33;;;;;;;6.95;3.47;;;;;;;16.85;73.39;100953.53;5026264;28;20049;-75
2022/09/01 10:10:05;;;;;;;11.20;4.25;;;;;;;16.73;73.43;100946.47;5028959;28;20525;-75
2022/09/01 10:12:36;;;;;;;6.43;3.42;;;;;;;16.71;74.31;100959.50;5030791;28;20042;-75
2022/09/01 10:15:08;;;;;;;4.90;3.40;;;;;;;16.66;74.13;100957.75;5027152;28;20057;-75
2022/09/01 10:17:40;;;;;;;7.45;4.43;;;;;;;16.63;74.16;100968.13;5021978;28;20045;-75
2022/09/01 10:20:13;;;;;;;6.43;4.32;;;;;;;16.60;74.71;100968.13;5020106;28;20418;-75
2022/09/01 10:22:42;;;;;;;5.43;3.70;;;;;;;16.53;74.97;100965.47;5024758;28;20041;-76
2022/09/01 10:25:29;;;;;;;5.40;3.75;;;;;;;16.49;74.95;100966.31;5026736;28;20667;-76
2022/09/01 10:28:04;;;;;;;9.38;3.97;;;;;;;16.45;74.91;100964.53;5026162;28;20049;-76
2022/09/01 10:30:33;;;;;;;5.07;3.40;;;;;;;16.44;75.18;100974.94;5025284;28;20045;-76
2022/09/01 10:33:03;;;;;;;7.32;4.35;;;;;;;16.39;75.77;100974.91;5026820;28;20707;-76
2022/09/01 10:35:35;;;;;;;6.70;4.47;;;;;;;16.34;75.59;100971.41;5028127;28;20517;-76
2022/09/01 10:38:07;;;;;;;7.10;4.43;;;;;;;16.28;75.80;100979.16;5023779;28;20041;-76
2022/09/01 10:40:43;;;;;;;6.82;3.53;;;;;;;16.23;76.10;100983.47;5025273;28;20045;-76
2022/09/01 10:43:43;;;;;;;5.47;3.30;;;;;;;16.22;76.80;100984.34;5025346;28;20048;-77
2022/09/01 10:46:44;;;;;;;5.28;3.75;;;;;;;16.21;76.75;100988.66;5024666;28;20052;-76
2022/09/01 10:49:25;;;;;;;5.63;3.85;;;;;;;16.20;76.04;100997.38;5026164;28;20080;-77
2022/09/01 10:51:54;;;;;;;6.03;3.55;;;;;;;16.21;76.02;100995.63;5030101;28;20136;-77
2022/09/01 10:54:59;;;;;;;5.68;3.55;;;;;;;16.22;76.20;100997.41;5030379;28;20483;-77
2022/09/01 10:57:45;;;;;;;5.22;3.40;;;;;;;16.23;75.38;100997.38;5028760;28;20045;-76
2022/09/01 11:00:49;;;;;;;7.88;3.55;;;;;;;16.21;75.64;100999.09;5033664;28;20133;-76
2022/09/01 11:04:00;;;;;;;6.50;3.60;;;;;;;16.19;75.95;100986.91;5053183;28;20049;-76
2022/09/01 11:06:46;;;;;;;7.05;4.35;;;;;;;16.15;75.80;100991.22;5052455;28;20056;-76
2022/09/01 11:09:24;;;;;;;6.03;3.13;;;;;;;16.12;76.25;100981.59;5047694;28;20107;-77
2022/09/01 11:12:22;;;;;;;6.65;4.43;;;;;;;16.10;76.36;100978.13;5050744;28;20076;-76
2022/09/01 11:14:52;;;;;;;7.30;3.55;;;;;;;16.06;77.17;100980.69;5047660;28;20045;-76
2022/09/01 11:17:26;;;;;;;7.63;4.55;;;;;;;15.98;77.48;100975.38;5047660;28;20048;-76
2022/09/01 11:20:11;;;;;;;5.05;3.42;;;;;;;15.91;77.30;100976.16;5047955;28;20789;-77
2022/09/01 11:22:42;;;;;;;6.75;4.22;;;;;;;15.90;76.70;100964.00;5046887;28;20048;-78
2022/09/01 11:25:42;;;;;;;6.65;3.92;;;;;;;15.89;76.52;100964.84;5048987;28;20410;-77
2022/09/01 11:28:42;;;;;;;6.40;3.70;;;;;;;15.85;77.00;100957.81;5051846;28;20202;-76
2022/09/01 11:31:21;;;;;;;6.28;3.83;;;;;;;15.79;77.90;100970.81;5051566;28;20203;-76
2022/09/01 11:34:13;;;;;;;8.02;4.22;;;;;;;15.77;77.46;100972.53;5045744;28;20764;-77
2022/09/01 11:36:57;;;;;;;6.95;3.90;;;;;;;15.75;77.37;100966.41;5047686;28;20068;-77
2022/09/01 11:39:40;;;;;;;7.90;3.75;;;;;;;15.74;78.20;100962.06;5050265;28;20059;-75
2022/09/01 11:42:18;;;;;;;5.93;3.45;;;;;;;15.71;78.25;100962.88;5050971;28;20494;-77
2022/09/01 11:44:52;;;;;;;6.75;4.13;;;;;;;15.68;78.06;100971.53;5051903;28;20053;-77
2022/09/01 11:47:25;;;;;;;7.28;4.00;;;;;;;15.67;78.46;100963.69;5053118;28;20045;-76
2022/09/01 11:49:58;;;;;;;9.52;3.58;;;;;;;15.64;78.47;100966.25;5048630;28;20749;-77